Airfield :
LOGIN :

Register | Disclaimer

   EN    FR    IT 

 










Legend :    VFR   Marginal VFR   IFR   Intensive IFR   Very Intensive IFR
Visi :
Ceiling :
>= 8 km
>= 3000ft
5 to 8 km
1000 to 3000 ft
1500m to 5 km
500 to 1000 ft
800 to 1500m
200 to 500 ft
< 800m
< 200 ft
Symbols :   Thunderstorms  Fog  Heavy snow  Heavy precipitations  Wind > 20 kt
SIGMETs :     Misc.  Thunderstorms  Icing  Turbulence  Mountain Waves  Volcanic Ashes







- Airport Elevation : 83 ft
- IATA code : LHR
- Download approach charts


EGLL - London Heathrow

CURRENT METAR :
  • 170820Z AUTO 08009KT 5000 HZ BKN010 07/05 Q1027 BECMG FEW010

EXPIRED METARs :
  • 170750Z AUTO 09007KT 5000 HZ BKN010 07/06 Q1027 BECMG FEW010
  • 170720Z AUTO 09007KT 5000 HZ BKN010 07/05 Q1027 BECMG FEW012
  • 170650Z 10009KT 7000 BKN010 07/05 Q1027
  • 170620Z 08008KT 6000 BKN009 07/06 Q1026 BECMG FEW012
  • 170550Z 08011KT 5000 BR BKN008 07/06 Q1026

TAF TAF EGLL
Valid from the 17 at 06:00 until the 18 at 12:00 UTC


170501Z 1706/1812 10010KT 6000 BKN006
PROB30
TEMPO 1706/1707 4000 -DZ
BECMG 1707/1709 FEW010
BECMG 1710/1713 CAVOK
BECMG 1722/1801 8000
BECMG 1809/1812 CAVOK
No reported NOTAMs for that airfield.



MET'MAP, your aeronautical weather chart ! - Copyright ORBIFLY December 2007 - Disclaimer

ORBIFLY MET'MAP TEAM :

Programming & Development : Alexandra Zaïnal
Concept & Development : Baudouin d'Aumeries
Co-Development & Prog : Marc-Olivier Méhu
Technical & hardware support : Manuel Goepfert

Contact : metmap@orbifly.com




SOURCES & CREDITS :

   NOAA